Time;durP1;ratioP1;P1;durP2;ratioP2;P2;SDS_P1;SDS_P2;PMS_P1;PMS_P2;Temp;Humidity;BMP_temperature;BMP_pressure;BME280_temperature;BME280_humidity;BME280_pressure;Samples;Min_cycle;Max_cycle;Signal;HPM_P1;HPM_P2
2021/07/11 00:00:11;;;;;;;19.08;2.92;;;14.20;78.60;;;;;;5001158;28;20423;-82
2021/07/11 00:02:39;;;;;;;8.48;2.70;;;14.20;78.60;;;;;;5019041;28;20408;-83
2021/07/11 00:05:08;;;;;;;6.18;3.00;;;14.10;78.60;;;;;;4992779;28;20065;-82
2021/07/11 00:07:35;;;;;;;5.25;3.05;;;14.10;78.60;;;;;;4992207;28;20050;-83
2021/07/11 00:10:07;;;;;;;6.55;2.40;;;14.00;78.70;;;;;;4993063;28;20046;-82
2021/07/11 00:12:34;;;;;;;6.20;2.65;;;14.00;78.70;;;;;;4993456;28;20047;-83
2021/07/11 00:15:04;;;;;;;6.78;2.97;;;13.90;78.60;;;;;;4991859;28;20049;-82
2021/07/11 00:17:31;;;;;;;10.57;2.63;;;13.90;78.70;;;;;;4992079;28;20043;-82
2021/07/11 00:19:59;;;;;;;15.80;3.05;;;13.90;78.70;;;;;;4992966;28;20500;-82
2021/07/11 00:22:26;;;;;;;7.40;2.53;;;13.90;78.70;;;;;;4992118;28;20500;-82
2021/07/11 00:24:53;;;;;;;10.05;2.97;;;13.80;78.60;;;;;;4993235;28;20057;-82
2021/07/11 00:27:20;;;;;;;11.13;2.72;;;13.80;78.60;;;;;;4993042;28;20046;-82
2021/07/11 00:29:47;;;;;;;6.90;3.03;;;13.80;78.50;;;;;;4991918;28;20050;-82
2021/07/11 00:32:14;;;;;;;4.80;2.83;;;13.80;78.60;;;;;;4992186;28;20057;-83
2021/07/11 00:34:41;;;;;;;7.40;2.90;;;13.70;78.60;;;;;;4992974;28;20050;-82
2021/07/11 00:37:08;;;;;;;8.25;2.92;;;13.70;78.80;;;;;;4996551;28;20136;-82
2021/07/11 00:39:35;;;;;;;8.30;3.15;;;13.60;79.00;;;;;;4996919;28;20050;-82
2021/07/11 00:42:03;;;;;;;11.93;3.10;;;13.60;79.10;;;;;;4996512;28;20054;-82
2021/07/11 00:44:30;;;;;;;8.73;3.33;;;13.60;79.20;;;;;;4995405;28;20411;-82
2021/07/11 00:46:57;;;;;;;7.72;3.60;;;13.60;79.30;;;;;;4997131;28;20491;-82
2021/07/11 00:49:24;;;;;;;9.43;3.70;;;13.60;79.30;;;;;;5014583;28;20050;-82
2021/07/11 00:51:51;;;;;;;7.47;3.42;;;13.50;79.40;;;;;;5014551;28;20056;-82
2021/07/11 00:54:21;;;;;;;6.90;3.40;;;13.50;79.40;;;;;;5015860;28;20058;-82
2021/07/11 00:56:49;;;;;;;19.35;4.32;;;13.50;79.40;;;;;;5015921;28;20499;-81
2021/07/11 00:59:20;;;;;;;7.63;3.75;;;13.50;79.50;;;;;;5016281;28;20060;-82
2021/07/11 01:02:17;;;;;;;9.88;4.32;;;13.50;79.60;;;;;;5014502;28;20050;-82
2021/07/11 01:04:59;;;;;;;6.68;4.40;;;13.40;79.60;;;;;;5015612;28;20053;-82
2021/07/11 01:07:48;;;;;;;13.85;5.05;;;13.40;79.80;;;;;;5014639;28;20054;-82
2021/07/11 01:10:37;;;;;;;11.32;5.35;;;13.50;80.10;;;;;;5015684;28;20045;-83
2021/07/11 01:13:08;;;;;;;10.00;5.20;;;13.50;80.30;;;;;;5016058;28;20046;-82
2021/07/11 01:15:37;;;;;;;9.55;5.43;;;13.50;80.50;;;;;;5014381;28;20076;-82
2021/07/11 01:18:07;;;;;;;7.57;5.25;;;13.50;80.70;;;;;;5013779;28;20041;-82
2021/07/11 01:20:48;;;;;;;11.25;5.05;;;13.50;80.80;;;;;;5030707;28;20499;-82
2021/07/11 01:23:47;;;;;;;13.82;5.30;;;13.60;80.90;;;;;;5030703;28;20064;-82
2021/07/11 01:26:15;;;;;;;16.50;5.80;;;13.60;80.90;;;;;;5030506;28;20099;-82
2021/07/11 01:28:46;;;;;;;13.70;5.25;;;13.60;80.90;;;;;;5015449;28;20050;-82
2021/07/11 01:31:15;;;;;;;10.75;4.72;;;13.60;80.90;;;;;;5013753;28;20045;-82
2021/07/11 01:33:44;;;;;;;9.70;5.22;;;13.60;80.90;;;;;;5015191;28;20046;-82
2021/07/11 01:36:12;;;;;;;12.23;5.85;;;13.60;80.90;;;;;;5014274;28;20052;-82
2021/07/11 01:38:45;;;;;;;29.50;6.63;;;13.70;80.80;;;;;;5015410;28;20064;-82
2021/07/11 01:41:13;;;;;;;20.20;6.78;;;13.70;80.80;;;;;;5015444;28;20503;-83
2021/07/11 01:43:41;;;;;;;11.70;6.03;;;13.70;80.70;;;;;;5015132;28;20049;-82
2021/07/11 01:46:09;;;;;;;13.85;6.90;;;13.70;80.70;;;;;;5029873;28;20058;-82
2021/07/11 01:48:38;;;;;;;12.73;6.40;;;13.70;80.70;;;;;;5030077;28;20108;-82
2021/07/11 01:51:05;;;;;;;13.82;6.00;;;13.70;80.80;;;;;;5013381;28;20411;-82
2021/07/11 01:53:37;;;;;;;10.52;6.28;;;13.70;80.90;;;;;;5013706;28;20056;-82
2021/07/11 01:56:06;;;;;;;17.00;6.82;;;13.70;80.90;;;;;;5014836;28;20045;-82
2021/07/11 01:58:34;;;;;;;10.23;5.32;;;13.70;80.90;;;;;;5013596;28;20514;-82
2021/07/11 02:01:04;;;;;;;18.17;6.72;;;13.70;81.00;;;;;;5014952;28;20058;-82
2021/07/11 02:03:32;;;;;;;12.45;5.88;;;13.70;81.00;;;;;;5013551;28;20100;-82
2021/07/11 02:05:59;;;;;;;11.23;5.45;;;13.70;81.10;;;;;;5013549;28;20085;-82
2021/07/11 02:08:26;;;;;;;12.25;6.68;;;13.70;81.30;;;;;;5013410;28;20050;-82
2021/07/11 02:10:54;;;;;;;16.05;6.22;;;13.70;81.30;;;;;;5014608;28;20057;-83
2021/07/11 02:13:33;;;;;;;24.17;6.80;;;13.70;81.40;;;;;;5014574;28;20050;-82
2021/07/11 02:16:09;;;;;;;18.70;6.55;;;13.70;81.50;;;;;;5013176;28;20046;-82
2021/07/11 02:18:39;;;;;;;14.80;7.38;;;13.80;81.60;;;;;;5012996;28;20046;-82
2021/07/11 02:21:07;;;;;;;18.20;7.85;;;13.80;81.70;;;;;;5014280;28;20053;-83
2021/07/11 02:23:36;;;;;;;14.30;8.30;;;13.80;81.80;;;;;;5013452;28;20064;-82
2021/07/11 02:26:06;;;;;;;14.40;9.20;;;13.90;81.90;;;;;;5014601;28;20058;-82
2021/07/11 02:28:35;;;;;;;13.55;8.65;;;13.90;82.00;;;;;;5029197;28;20049;-82
2021/07/11 02:31:05;;;;;;;18.52;8.48;;;13.90;82.00;;;;;;5029182;28;20057;-83
2021/07/11 02:33:36;;;;;;;17.05;8.82;;;13.90;82.10;;;;;;5014195;28;20085;-83
2021/07/11 02:36:17;;;;;;;17.30;9.20;;;14.00;82.10;;;;;;5029134;28;20052;-83
2021/07/11 02:38:57;;;;;;;17.50;9.48;;;14.00;82.20;;;;;;5029574;28;20046;-82
2021/07/11 02:41:29;;;;;;;25.05;9.10;;;14.10;82.20;;;;;;5029227;28;20404;-82
2021/07/11 02:43:59;;;;;;;18.55;9.23;;;14.10;82.20;;;;;;5029010;28;20076;-82
2021/07/11 02:46:30;;;;;;;17.83;9.82;;;14.20;82.30;;;;;;5013634;28;20058;-82
2021/07/11 02:49:01;;;;;;;15.95;9.75;;;14.20;82.20;;;;;;5028856;28;20050;-82
2021/07/11 02:51:30;;;;;;;17.10;9.23;;;14.20;82.30;;;;;;5012346;28;20061;-83
2021/07/11 02:53:59;;;;;;;24.42;9.48;;;14.30;82.30;;;;;;5012832;28;20060;-83
2021/07/11 02:56:32;;;;;;;22.75;9.82;;;14.30;82.30;;;;;;5012784;28;20046;-83
2021/07/11 02:59:00;;;;;;;14.65;7.85;;;14.30;82.30;;;;;;5013317;28;20073;-83
2021/07/11 03:01:29;;;;;;;15.88;8.68;;;14.40;82.30;;;;;;5013605;28;20513;-83
2021/07/11 03:03:59;;;;;;;22.73;9.40;;;14.40;82.30;;;;;;5013650;28;20507;-83
2021/07/11 03:06:26;;;;;;;14.55;9.30;;;14.40;82.30;;;;;;5012455;28;20084;-82
2021/07/11 03:08:53;;;;;;;17.02;8.63;;;14.40;82.30;;;;;;5013624;28;20631;-83
2021/07/11 03:11:21;;;;;;;16.05;9.18;;;14.40;82.30;;;;;;5013518;28;20049;-83
2021/07/11 03:13:50;;;;;;;15.13;9.20;;;14.40;82.40;;;;;;5028706;28;20042;-83
2021/07/11 03:16:21;;;;;;;21.27;8.40;;;14.40;82.40;;;;;;5013447;28;20056;-82
2021/07/11 03:18:53;;;;;;;20.70;9.38;;;14.40;82.40;;;;;;5011963;28;20407;-82
2021/07/11 03:21:23;;;;;;;17.38;8.70;;;14.50;82.40;;;;;;5028516;28;20065;-82
2021/07/11 03:23:52;;;;;;;15.68;8.48;;;14.50;82.50;;;;;;5028797;28;20045;-82
2021/07/11 03:26:21;;;;;;;17.77;8.75;;;14.50;82.40;;;;;;5013482;28;20049;-83
2021/07/11 03:28:50;;;;;;;18.45;9.00;;;14.60;82.50;;;;;;5028378;28;20052;-82
2021/07/11 03:31:18;;;;;;;14.20;9.88;;;14.60;82.50;;;;;;5013275;28;20534;-83
2021/07/11 03:33:52;;;;;;;19.48;10.55;;;14.60;82.50;;;;;;5028782;28;20418;-83
2021/07/11 03:36:21;;;;;;;17.13;10.52;;;14.60;82.50;;;;;;5013407;28;20052;-83
2021/07/11 03:38:54;;;;;;;18.98;10.70;;;14.70;82.50;;;;;;5012143;28;20050;-83
2021/07/11 03:41:26;;;;;;;26.05;11.25;;;14.60;82.50;;;;;;5028333;28;20411;-82
2021/07/11 03:43:57;;;;;;;19.75;9.85;;;14.70;82.50;;;;;;5028251;28;20400;-83
2021/07/11 03:46:32;;;;;;;17.95;11.00;;;14.70;82.50;;;;;;5027927;28;20058;-83
2021/07/11 03:49:07;;;;;;;17.70;10.95;;;14.70;82.50;;;;;;5013208;28;20072;-83
2021/07/11 03:51:37;;;;;;;22.52;11.93;;;14.70;82.50;;;;;;5012672;28;20428;-83
2021/07/11 03:54:07;;;;;;;23.60;11.02;;;14.70;82.50;;;;;;5013166;28;20049;-83
2021/07/11 03:56:35;;;;;;;26.08;11.70;;;14.70;82.50;;;;;;5013250;28;20537;-83
2021/07/11 03:59:06;;;;;;;17.05;11.07;;;14.80;82.50;;;;;;5011991;28;20052;-82
2021/07/11 04:01:36;;;;;;;20.98;11.75;;;14.80;82.50;;;;;;5013163;28;20060;-83
2021/07/11 04:04:08;;;;;;;22.08;11.57;;;14.80;82.50;;;;;;5028344;28;20078;-83
2021/07/11 04:06:36;;;;;;;21.38;11.98;;;14.80;82.60;;;;;;5028353;28;20064;-83
2021/07/11 04:09:04;;;;;;;16.45;12.32;;;14.80;82.50;;;;;;5028498;28;20496;-83
2021/07/11 04:11:35;;;;;;;15.60;10.82;;;14.80;82.40;;;;;;5031661;28;20052;-83
2021/07/11 04:14:03;;;;;;;18.98;10.48;;;14.80;82.30;;;;;;5016993;28;20049;-82
2021/07/11 04:16:32;;;;;;;17.80;9.98;;;14.80;82.20;;;;;;5032334;28;20054;-83
2021/07/11 04:19:01;;;;;;;15.02;9.80;;;14.80;82.10;;;;;;5016592;28;20137;-83
2021/07/11 04:21:31;;;;;;;12.98;10.05;;;14.80;82.00;;;;;;5016595;28;20054;-83
2021/07/11 04:23:58;;;;;;;19.58;10.30;;;14.80;81.80;;;;;;5016703;28;20215;-83
2021/07/11 04:26:32;;;;;;;19.10;10.15;;;14.70;81.70;;;;;;5031643;28;20049;-83
2021/07/11 04:29:00;;;;;;;14.68;9.05;;;14.70;81.60;;;;;;5032185;28;20054;-83
2021/07/11 04:31:27;;;;;;;17.13;9.60;;;14.70;81.50;;;;;;5015087;28;20081;-84
2021/07/11 04:33:54;;;;;;;12.38;8.07;;;14.70;81.40;;;;;;5031696;28;20050;-83
2021/07/11 04:36:21;;;;;;;17.02;8.50;;;14.70;81.30;;;;;;5031636;28;20056;-83
2021/07/11 04:38:48;;;;;;;16.33;9.20;;;14.60;81.10;;;;;;5016387;28;20133;-83
2021/07/11 04:41:15;;;;;;;16.63;9.45;;;14.60;81.10;;;;;;5014804;28;20054;-83
2021/07/11 04:43:44;;;;;;;15.68;10.40;;;14.60;81.00;;;;;;5015277;28;20058;-83
2021/07/11 04:46:11;;;;;;;19.80;9.77;;;14.50;81.00;;;;;;5014717;28;20058;-83
2021/07/11 04:48:38;;;;;;;16.95;9.52;;;14.60;81.00;;;;;;5014845;28;20068;-83
2021/07/11 04:51:05;;;;;;;19.15;10.05;;;14.50;81.10;;;;;;5016049;28;20046;-83
2021/07/11 04:53:33;;;;;;;16.85;10.07;;;14.50;81.10;;;;;;5015786;28;20042;-84
2021/07/11 04:56:01;;;;;;;16.02;10.85;;;14.50;81.20;;;;;;5014974;28;20220;-83
2021/07/11 04:58:28;;;;;;;16.52;10.88;;;14.50;81.30;;;;;;5031370;28;20125;-83
2021/07/11 05:00:55;;;;;;;19.05;10.40;;;14.50;81.40;;;;;;5031184;28;20053;-83
2021/07/11 05:03:22;;;;;;;13.20;10.40;;;14.50;81.50;;;;;;5030796;28;20410;-83
2021/07/11 05:05:50;;;;;;;17.83;10.07;;;14.50;81.60;;;;;;5030877;28;20045;-83
2021/07/11 05:08:17;;;;;;;14.43;10.35;;;14.40;81.70;;;;;;5015443;28;20046;-83
2021/07/11 05:10:44;;;;;;;17.05;11.05;;;14.40;81.80;;;;;;5031034;28;20046;-83
2021/07/11 05:13:11;;;;;;;16.10;10.52;;;14.40;81.90;;;;;;5031011;28;20056;-83
2021/07/11 05:15:38;;;;;;;20.13;10.80;;;14.50;82.00;;;;;;5014504;28;20507;-83
2021/07/11 05:18:06;;;;;;;19.23;10.95;;;14.50;82.00;;;;;;5030581;28;20042;-83
2021/07/11 05:20:33;;;;;;;15.85;10.25;;;14.50;82.10;;;;;;5014109;28;20046;-83
2021/07/11 05:23:01;;;;;;;17.23;11.57;;;14.60;82.10;;;;;;5030796;28;20132;-83
2021/07/11 05:25:32;;;;;;;16.48;11.10;;;14.50;82.10;;;;;;5014239;28;20415;-84
2021/07/11 05:28:00;;;;;;;20.90;11.10;;;14.60;82.20;;;;;;5014547;28;20136;-83
2021/07/11 05:30:27;;;;;;;16.15;10.75;;;14.60;82.10;;;;;;5030410;28;20054;-84
2021/07/11 05:32:57;;;;;;;17.00;11.68;;;14.60;82.10;;;;;;5014174;28;20046;-83
2021/07/11 05:35:24;;;;;;;20.67;11.57;;;14.60;82.10;;;;;;5015353;28;20050;-83
2021/07/11 05:37:51;;;;;;;18.23;11.25;;;14.70;82.10;;;;;;5013798;28;20431;-84
2021/07/11 05:40:18;;;;;;;14.85;10.88;;;14.70;82.10;;;;;;5015200;28;20057;-84
2021/07/11 05:42:45;;;;;;;16.42;11.38;;;14.80;82.20;;;;;;5015256;28;20077;-83
2021/07/11 05:45:13;;;;;;;15.52;10.95;;;14.80;82.20;;;;;;5014042;28;20050;-84
2021/07/11 05:47:41;;;;;;;17.42;10.30;;;14.80;82.10;;;;;;5013646;28;20056;-84
2021/07/11 05:50:09;;;;;;;16.25;10.52;;;14.80;82.00;;;;;;5030054;28;20408;-84
2021/07/11 05:52:36;;;;;;;16.85;11.43;;;14.90;82.00;;;;;;5029618;28;20061;-83
2021/07/11 05:55:04;;;;;;;14.80;11.32;;;14.90;81.90;;;;;;5014827;28;20045;-84
2021/07/11 05:57:31;;;;;;;17.25;11.38;;;14.90;81.90;;;;;;5030157;28;20050;-84
2021/07/11 05:59:58;;;;;;;17.02;11.82;;;15.00;81.90;;;;;;5013631;28;20053;-84
2021/07/11 06:02:28;;;;;;;16.27;10.88;;;15.00;82.00;;;;;;5013772;28;20060;-84
2021/07/11 06:04:58;;;;;;;17.65;11.32;;;15.00;81.90;;;;;;5013434;28;20507;-83
2021/07/11 06:07:25;;;;;;;14.10;9.77;;;15.10;81.90;;;;;;5029516;28;20050;-83
2021/07/11 06:09:52;;;;;;;13.93;9.23;;;15.20;81.90;;;;;;5029930;28;20053;-83
2021/07/11 06:12:19;;;;;;;12.60;9.13;;;15.20;81.90;;;;;;5013316;28;20056;-83
2021/07/11 06:14:47;;;;;;;16.13;9.77;;;15.30;81.80;;;;;;5014392;28;20052;-84
2021/07/11 06:17:14;;;;;;;13.32;9.60;;;15.30;81.70;;;;;;5013332;28;20045;-83
2021/07/11 06:19:41;;;;;;;13.50;9.82;;;15.40;81.70;;;;;;5029681;28;20048;-84
2021/07/11 06:22:08;;;;;;;13.70;9.35;;;15.40;81.80;;;;;;5014168;28;20045;-84
2021/07/11 06:24:35;;;;;;;14.90;10.35;;;15.50;81.80;;;;;;5029605;28;20046;-84
2021/07/11 06:27:03;;;;;;;13.63;9.90;;;15.50;81.70;;;;;;5013357;28;20057;-83
2021/07/11 06:29:30;;;;;;;17.70;10.23;;;15.60;81.70;;;;;;5013375;28;20041;-84
2021/07/11 06:31:57;;;;;;;15.68;9.90;;;15.60;81.70;;;;;;5013523;28;20418;-83
2021/07/11 06:34:24;;;;;;;14.13;9.10;;;15.60;81.60;;;;;;5029502;28;20045;-84
2021/07/11 06:36:51;;;;;;;17.63;9.88;;;15.70;81.60;;;;;;5013881;28;20052;-83
2021/07/11 06:39:18;;;;;;;17.52;10.50;;;15.80;81.60;;;;;;5029438;28;20053;-84
2021/07/11 06:41:46;;;;;;;18.25;10.95;;;15.80;81.60;;;;;;5014127;28;20049;-86
2021/07/11 06:44:13;;;;;;;14.73;10.35;;;15.90;81.60;;;;;;5012981;28;20061;-83
2021/07/11 06:46:40;;;;;;;14.57;11.10;;;15.90;81.70;;;;;;5006805;28;20058;-85
2021/07/11 06:49:07;;;;;;;15.57;10.30;;;16.00;81.50;;;;;;5007688;28;20061;-83
2021/07/11 06:51:34;;;;;;;15.02;10.43;;;16.10;81.50;;;;;;5002431;28;20058;-81
2021/07/11 06:54:02;;;;;;;16.30;10.63;;;16.20;81.70;;;;;;5027774;28;20058;-82
2021/07/11 06:56:29;;;;;;;16.55;11.77;;;16.20;81.60;;;;;;5012573;28;20053;-83
2021/07/11 06:58:56;;;;;;;19.30;11.77;;;16.30;81.40;;;;;;5012842;28;20049;-83
2021/07/11 07:01:23;;;;;;;14.93;10.75;;;16.30;81.00;;;;;;5012551;28;20041;-82
2021/07/11 07:03:51;;;;;;;17.05;11.73;;;16.30;80.80;;;;;;5025599;28;20414;-84
2021/07/11 07:06:18;;;;;;;14.65;10.93;;;16.40;80.70;;;;;;4991831;28;20054;-84
2021/07/11 07:08:45;;;;;;;18.95;10.40;;;16.40;80.60;;;;;;4992568;28;20046;-84
2021/07/11 07:11:13;;;;;;;15.05;10.27;;;16.40;80.60;;;;;;5007683;28;20077;-83
2021/07/11 07:13:40;;;;;;;13.38;10.25;;;16.50;80.50;;;;;;4992691;28;20077;-83
2021/07/11 07:16:07;;;;;;;13.55;10.10;;;16.60;80.60;;;;;;4992590;28;20473;-84
2021/07/11 07:18:34;;;;;;;13.50;9.20;;;16.70;80.40;;;;;;5019681;28;20495;-83
2021/07/11 07:21:01;;;;;;;11.68;8.40;;;16.80;80.00;;;;;;5011375;28;20049;-83
2021/07/11 07:23:28;;;;;;;11.38;7.75;;;16.80;79.90;;;;;;5027447;28;20050;-83
2021/07/11 07:25:56;;;;;;;11.45;8.00;;;16.90;79.40;;;;;;5010765;28;20046;-85
2021/07/11 07:28:23;;;;;;;10.40;7.65;;;16.90;78.90;;;;;;5011108;28;20046;-83
2021/07/11 07:30:50;;;;;;;9.95;7.53;;;16.90;78.70;;;;;;5012090;28;20567;-83
2021/07/11 07:33:17;;;;;;;12.65;7.50;;;16.90;78.60;;;;;;5010744;28;20042;-84
2021/07/11 07:35:44;;;;;;;9.85;7.20;;;16.90;78.60;;;;;;5027356;28;20057;-84
2021/07/11 07:38:11;;;;;;;10.77;7.63;;;16.90;78.60;;;;;;5010861;28;20046;-84
2021/07/11 07:40:38;;;;;;;21.13;7.93;;;17.00;78.60;;;;;;5027574;28;20038;-85
2021/07/11 07:43:06;;;;;;;9.52;7.40;;;17.00;78.70;;;;;;5012494;28;20145;-84
2021/07/11 07:45:34;;;;;;;9.90;6.93;;;17.00;78.70;;;;;;5014979;28;20054;-84
2021/07/11 07:48:01;;;;;;;9.68;6.78;;;17.10;78.50;;;;;;5015219;28;20455;-88
2021/07/11 07:50:28;;;;;;;10.50;6.78;;;17.10;78.50;;;;;;5014672;28;20054;-84
2021/07/11 07:52:55;;;;;;;8.68;6.40;;;17.10;78.60;;;;;;4992247;28;20047;-85
2021/07/11 07:55:23;;;;;;;10.18;6.25;;;17.20;78.70;;;;;;4994970;28;20046;-85
2021/07/11 07:57:50;;;;;;;12.52;6.18;;;17.30;78.20;;;;;;4994913;28;20050;-86
2021/07/11 08:00:17;;;;;;;10.30;6.50;;;17.30;77.90;;;;;;4995134;28;20129;-83
2021/07/11 08:02:44;;;;;;;11.55;6.57;;;17.30;77.60;;;;;;4994193;28;20134;-82
2021/07/11 08:05:12;;;;;;;9.25;6.38;;;17.40;77.60;;;;;;4995074;28;20061;-88
2021/07/11 08:07:40;;;;;;;11.32;6.90;;;17.40;77.50;;;;;;4995384;28;20081;-87
2021/07/11 08:10:09;;;;;;;11.30;7.40;;;17.40;77.50;;;;;;4994824;28;20165;-81
2021/07/11 08:12:36;;;;;;;10.80;6.85;;;17.40;77.40;;;;;;4996085;28;20053;-85
2021/07/11 08:15:05;;;;;;;10.52;7.18;;;17.40;77.40;;;;;;4994728;28;20054;-84
2021/07/11 08:17:32;;;;;;;9.13;6.70;;;17.40;77.30;;;;;;4994363;28;20050;-84
2021/07/11 08:20:00;;;;;;;10.38;6.63;;;17.40;77.30;;;;;;4995812;28;20043;-84
2021/07/11 08:22:28;;;;;;;11.05;6.88;;;17.40;77.30;;;;;;4996058;28;20443;-83
2021/07/11 08:24:55;;;;;;;18.08;6.97;;;17.40;77.30;;;;;;4994285;28;20050;-83
2021/07/11 08:27:24;;;;;;;11.18;6.72;;;17.50;77.50;;;;;;4994147;28;20073;-84
2021/07/11 08:29:51;;;;;;;11.32;6.10;;;17.50;77.30;;;;;;5011107;28;20042;-83
2021/07/11 08:32:19;;;;;;;9.73;5.85;;;17.60;77.30;;;;;;5011421;28;20050;-85
2021/07/11 08:34:46;;;;;;;9.90;5.50;;;17.70;77.20;;;;;;5011608;28;20050;-86
2021/07/11 08:37:14;;;;;;;9.40;5.93;;;17.70;77.00;;;;;;5011983;28;20048;-86
2021/07/11 08:39:41;;;;;;;9.60;6.05;;;17.80;76.70;;;;;;5011786;28;20062;-85
2021/07/11 08:42:09;;;;;;;9.00;5.57;;;17.80;76.60;;;;;;4995322;28;20133;-88
2021/07/11 08:44:36;;;;;;;11.45;6.47;;;17.80;76.60;;;;;;5011767;28;20503;-87
2021/07/11 08:47:04;;;;;;;8.68;5.30;;;17.90;76.70;;;;;;5010801;28;20069;-86
2021/07/11 08:49:32;;;;;;;8.20;5.47;;;17.90;76.80;;;;;;5010875;28;20093;-86
2021/07/11 08:52:02;;;;;;;10.05;5.93;;;18.00;76.80;;;;;;5011330;28;20077;-82
2021/07/11 08:54:29;;;;;;;7.28;5.70;;;18.20;76.60;;;;;;4996036;28;20492;-85
2021/07/11 08:57:02;;;;;;;8.00;5.22;;;18.30;76.60;;;;;;4995529;28;20078;-84
2021/07/11 08:59:30;;;;;;;6.63;4.50;;;18.40;76.00;;;;;;5011051;28;20061;-83
2021/07/11 09:01:58;;;;;;;9.18;4.70;;;18.40;75.20;;;;;;4995822;28;20405;-84
2021/07/11 09:04:26;;;;;;;7.50;4.60;;;18.40;74.80;;;;;;4994952;28;20061;-85
2021/07/11 09:06:56;;;;;;;10.65;4.55;;;18.50;74.50;;;;;;4996139;28;20050;-84
2021/07/11 09:09:28;;;;;;;6.53;4.35;;;18.50;73.90;;;;;;5011338;28;20420;-84
2021/07/11 09:12:05;;;;;;;7.72;4.75;;;18.50;73.40;;;;;;4995896;28;20053;-84
2021/07/11 09:14:53;;;;;;;8.13;4.43;;;18.50;73.40;;;;;;4995783;28;20138;-82
2021/07/11 09:17:21;;;;;;;8.20;4.53;;;18.60;73.70;;;;;;5010903;28;20046;-84
2021/07/11 09:19:50;;;;;;;8.40;4.47;;;18.60;73.80;;;;;;4995784;28;20566;-84
2021/07/11 09:22:20;;;;;;;7.43;4.72;;;18.70;74.00;;;;;;4995553;28;20563;-85
2021/07/11 09:24:53;;;;;;;8.90;4.72;;;18.80;74.10;;;;;;5010566;28;20046;-84
2021/07/11 09:27:26;;;;;;;6.97;4.55;;;18.80;74.00;;;;;;4995936;28;20050;-85
2021/07/11 09:29:58;;;;;;;6.78;4.50;;;18.90;73.90;;;;;;4994454;28;20062;-83
2021/07/11 09:32:38;;;;;;;7.63;4.30;;;18.90;73.80;;;;;;5009284;28;20050;-83
2021/07/11 09:35:20;;;;;;;7.65;4.22;;;18.90;73.50;;;;;;5010620;28;20054;-83
2021/07/11 09:37:49;;;;;;;6.90;3.85;;;18.90;73.40;;;;;;4994204;28;20046;-83
2021/07/11 09:40:19;;;;;;;5.35;3.53;;;18.90;73.50;;;;;;5010444;28;20053;-83
2021/07/11 09:42:49;;;;;;;5.65;3.20;;;18.90;73.60;;;;;;5010459;28;20050;-83
2021/07/11 09:45:20;;;;;;;4.93;2.80;;;18.90;73.40;;;;;;5010104;28;20049;-85
2021/07/11 09:47:51;;;;;;;14.43;3.40;;;19.00;73.40;;;;;;5009958;28;20046;-84
2021/07/11 09:50:23;;;;;;;4.85;3.38;;;19.10;73.30;;;;;;4993789;28;20056;-83
2021/07/11 09:52:56;;;;;;;6.03;3.40;;;19.20;73.20;;;;;;4995026;28;20052;-84
2021/07/11 09:55:26;;;;;;;4.45;2.85;;;19.30;73.20;;;;;;5010501;28;20050;-87
2021/07/11 09:57:56;;;;;;;5.07;2.90;;;19.30;73.10;;;;;;5009998;28;20448;-84
2021/07/11 10:00:29;;;;;;;6.05;3.00;;;19.40;72.80;;;;;;5009793;28;20054;-83
2021/07/11 10:02:57;;;;;;;7.30;3.22;;;19.40;72.70;;;;;;5009852;28;20511;-84
2021/07/11 10:05:25;;;;;;;6.95;3.08;;;19.40;72.60;;;;;;5010076;28;20058;-84
2021/07/11 10:07:53;;;;;;;8.13;3.08;;;19.40;72.40;;;;;;4993976;28;20130;-83
2021/07/11 10:10:23;;;;;;;4.50;2.85;;;19.50;72.30;;;;;;5009875;28;20046;-83
2021/07/11 10:12:51;;;;;;;8.20;3.00;;;19.50;72.50;;;;;;4993130;28;20504;-84
2021/07/11 10:15:24;;;;;;;5.20;3.00;;;19.50;72.80;;;;;;5009857;28;20412;-84
2021/07/11 10:17:58;;;;;;;5.93;3.30;;;19.60;72.70;;;;;;4993566;28;20057;-85
2021/07/11 10:20:33;;;;;;;5.10;3.25;;;19.70;72.00;;;;;;5009910;28;20058;-84
2021/07/11 10:23:02;;;;;;;5.60;3.20;;;19.70;72.00;;;;;;5009442;28;20471;-85
2021/07/11 10:25:31;;;;;;;7.13;3.08;;;19.70;71.30;;;;;;4994251;28;20515;-84
2021/07/11 10:28:07;;;;;;;7.07;2.97;;;19.80;71.70;;;;;;5009393;28;20072;-83
2021/07/11 10:30:40;;;;;;;7.10;3.53;;;19.80;71.40;;;;;;5009512;28;20420;-84
2021/07/11 10:33:13;;;;;;;5.97;3.70;;;19.80;71.50;;;;;;5009475;28;20050;-85
2021/07/11 10:36:04;;;;;;;5.32;3.40;;;19.80;71.70;;;;;;5009231;28;20464;-85
2021/07/11 10:38:39;;;;;;;6.60;3.38;;;19.90;71.80;;;;;;5009303;28;20050;-84
2021/07/11 10:41:12;;;;;;;5.05;3.15;;;19.90;71.70;;;;;;4993156;28;20050;-86
2021/07/11 10:43:40;;;;;;;5.22;3.40;;;19.90;71.90;;;;;;4994142;28;20064;-84
2021/07/11 10:46:07;;;;;;;5.05;3.60;;;19.90;71.70;;;;;;4993926;28;20058;-87
2021/07/11 10:48:35;;;;;;;4.75;3.30;;;19.90;71.60;;;;;;5008711;28;20108;-85
2021/07/11 10:51:03;;;;;;;6.40;4.00;;;19.90;71.50;;;;;;4992617;28;20046;-84
2021/07/11 10:53:36;;;;;;;5.32;3.92;;;19.90;71.70;;;;;;4984218;28;20160;-81
2021/07/11 10:56:05;;;;;;;6.20;3.15;;;19.90;71.80;;;;;;5011682;28;20426;-85
2021/07/11 10:58:45;;;;;;;5.45;3.72;;;19.90;71.70;;;;;;5012718;28;20064;-84
2021/07/11 11:01:17;;;;;;;4.65;3.15;;;19.90;71.50;;;;;;5011548;28;20108;-83
2021/07/11 11:03:47;;;;;;;5.65;3.50;;;19.90;71.60;;;;;;5027334;28;20100;-85
2021/07/11 11:06:15;;;;;;;9.95;3.63;;;19.90;71.00;;;;;;5011252;28;20053;-83
2021/07/11 11:08:44;;;;;;;5.05;3.55;;;19.90;71.40;;;;;;5011331;28;20502;-83
2021/07/11 11:11:12;;;;;;;5.03;3.65;;;19.90;71.20;;;;;;4999026;28;20526;-84
2021/07/11 11:13:39;;;;;;;6.45;4.32;;;19.90;71.00;;;;;;5007955;28;20042;-84
2021/07/11 11:16:15;;;;;;;6.70;4.72;;;19.90;70.80;;;;;;4992798;28;20072;-83
2021/07/11 11:18:48;;;;;;;5.85;4.45;;;19.80;70.80;;;;;;5007555;28;20046;-85
2021/07/11 11:21:17;;;;;;;8.73;4.72;;;19.70;71.20;;;;;;4992964;28;20129;-85
2021/07/11 11:23:47;;;;;;;6.32;4.78;;;19.70;71.40;;;;;;4992316;28;20058;-83
2021/07/11 11:26:25;;;;;;;8.02;5.18;;;19.60;71.40;;;;;;4991364;28;20050;-84
2021/07/11 11:28:56;;;;;;;6.32;4.93;;;19.60;71.70;;;;;;5007527;28;20053;-84
2021/07/11 11:31:24;;;;;;;7.18;4.95;;;19.50;71.50;;;;;;5007472;28;20054;-84
2021/07/11 11:33:56;;;;;;;6.07;4.80;;;19.40;71.70;;;;;;4991441;28;20078;-83
2021/07/11 11:36:43;;;;;;;6.07;4.55;;;19.40;72.10;;;;;;5007572;28;20046;-84
2021/07/11 11:39:20;;;;;;;7.90;4.75;;;19.40;72.30;;;;;;5007533;28;20102;-85
2021/07/11 11:41:48;;;;;;;7.82;5.13;;;19.40;72.50;;;;;;4992322;28;20053;-85
2021/07/11 11:44:20;;;;;;;9.10;5.30;;;19.30;72.60;;;;;;4992781;28;20470;-85
2021/07/11 11:46:50;;;;;;;5.60;4.80;;;19.30;72.60;;;;;;4995991;28;20108;-82
2021/07/11 11:49:22;;;;;;;6.88;4.80;;;19.30;72.80;;;;;;5003213;28;20050;-84
2021/07/11 11:51:52;;;;;;;6.50;5.03;;;19.30;72.80;;;;;;5012256;28;20045;-86
2021/07/11 11:54:29;;;;;;;5.55;4.38;;;19.30;72.70;;;;;;5026265;28;20050;-84
2021/07/11 11:56:57;;;;;;;5.30;4.35;;;19.30;72.70;;;;;;5010957;28;20046;-86
2021/07/11 11:59:26;;;;;;;7.47;5.00;;;19.40;72.90;;;;;;5010828;28;20058;-84
2021/07/11 12:01:59;;;;;;;7.03;4.40;;;19.40;73.00;;;;;;5026810;28;20045;-87
2021/07/11 12:04:28;;;;;;;6.10;4.32;;;19.40;73.20;;;;;;5026964;28;20050;-88
2021/07/11 12:06:58;;;;;;;7.03;4.90;;;19.50;73.30;;;;;;5017213;28;20050;-83
2021/07/11 12:09:30;;;;;;;6.68;4.28;;;19.50;73.30;;;;;;5010275;28;20050;-85
2021/07/11 12:12:01;;;;;;;4.57;3.40;;;19.60;73.10;;;;;;5027238;28;20049;-84
2021/07/11 12:14:34;;;;;;;6.20;3.43;;;19.70;72.70;;;;;;5026622;28;20412;-84
2021/07/11 12:17:08;;;;;;;4.93;3.42;;;19.80;72.50;;;;;;5011281;28;20463;-84
2021/07/11 12:19:53;;;;;;;5.75;3.10;;;19.80;72.60;;;;;;5011785;28;20503;-84
2021/07/11 12:22:31;;;;;;;7.35;3.15;;;19.90;72.60;;;;;;5027016;28;20050;-83
2021/07/11 12:25:18;;;;;;;3.95;2.58;;;20.00;72.70;;;;;;5026240;28;20064;-85
2021/07/11 12:27:49;;;;;;;4.65;2.50;;;20.00;72.50;;;;;;5027106;28;20050;-84
2021/07/11 12:30:20;;;;;;;6.18;2.60;;;20.10;72.40;;;;;;5027280;28;20412;-84
2021/07/11 12:32:53;;;;;;;4.10;2.42;;;20.20;71.90;;;;;;5030491;28;20060;-86
2021/07/11 12:35:24;;;;;;;4.60;2.42;;;20.30;71.60;;;;;;5030774;28;20410;-86
2021/07/11 12:38:01;;;;;;;6.43;2.50;;;20.30;71.50;;;;;;5029885;28;20065;-84
2021/07/11 12:40:31;;;;;;;3.50;1.95;;;20.30;71.40;;;;;;5015315;28;20054;-85
2021/07/11 12:43:21;;;;;;;5.15;1.90;;;20.30;71.20;;;;;;5030382;28;20089;-84
2021/07/11 12:46:06;;;;;;;3.67;1.98;;;20.40;71.00;;;;;;5014352;28;20466;-85
2021/07/11 12:48:41;;;;;;;3.13;1.40;;;20.40;70.50;;;;;;5009016;28;20476;-85
2021/07/11 12:51:12;;;;;;;4.57;1.60;;;20.40;70.40;;;;;;5013521;28;20052;-86